createdAt,value
2018-06-15T00:00:20.920Z,17.15
2018-06-15T00:01:20.937Z,17.11
2018-06-15T00:02:20.952Z,17.07
2018-06-15T00:03:21.071Z,17.11
2018-06-15T00:04:20.985Z,17.00
2018-06-15T00:05:20.999Z,16.98
2018-06-15T00:06:21.017Z,16.97
2018-06-15T00:07:21.035Z,16.96
2018-06-15T00:08:21.049Z,16.96
2018-06-15T00:09:21.067Z,16.88
2018-06-15T00:10:21.080Z,16.94
2018-06-15T00:11:21.095Z,16.91
2018-06-15T00:12:21.113Z,16.94
2018-06-15T00:13:21.129Z,16.94
2018-06-15T00:14:21.144Z,17.00
2018-06-15T00:15:21.161Z,16.96
2018-06-15T00:16:21.177Z,16.96
2018-06-15T00:17:21.191Z,16.93
2018-06-15T00:18:21.209Z,16.91
2018-06-15T00:19:21.225Z,16.96
2018-06-15T00:20:21.240Z,16.94
2018-06-15T00:21:21.257Z,16.94
2018-06-15T00:22:21.273Z,16.91
2018-06-15T00:23:21.308Z,17.00
2018-06-15T00:24:21.315Z,17.00
2018-06-15T00:25:21.321Z,17.01
2018-06-15T00:26:21.339Z,16.89
2018-06-15T00:27:21.351Z,16.96
2018-06-15T00:28:21.375Z,16.97
2018-06-15T00:29:21.390Z,16.97
2018-06-15T00:30:21.401Z,16.94
2018-06-15T00:31:21.474Z,16.96
2018-06-15T00:32:21.437Z,16.97
2018-06-15T00:33:21.448Z,16.96
2018-06-15T00:34:21.464Z,16.89
2018-06-15T00:35:21.483Z,16.94
2018-06-15T00:36:21.501Z,17.01
2018-06-15T00:37:21.515Z,16.98
2018-06-15T00:38:21.534Z,17.03
2018-06-15T00:39:21.544Z,16.98
2018-06-15T00:40:21.563Z,16.94
2018-06-15T00:41:21.582Z,16.91
2018-06-15T00:42:21.592Z,16.94
2018-06-15T00:43:21.608Z,16.96
2018-06-15T00:44:21.625Z,17.00
2018-06-15T00:45:21.643Z,16.93
2018-06-15T00:46:21.662Z,16.91
2018-06-15T00:47:21.680Z,16.91
2018-06-15T00:48:21.704Z,17.00
2018-06-15T00:49:21.706Z,16.91
2018-06-15T00:50:21.720Z,16.91
2018-06-15T00:51:21.748Z,16.97
2018-06-15T00:52:21.753Z,16.91
2018-06-15T00:53:21.800Z,16.93
2018-06-15T00:54:21.784Z,16.85
2018-06-15T00:55:21.800Z,16.94
2018-06-15T00:56:21.820Z,16.93
2018-06-15T00:57:21.833Z,16.96
2018-06-15T00:58:21.849Z,16.98
2018-06-15T00:59:21.865Z,16.94
2018-06-15T01:00:21.883Z,16.91
2018-06-15T01:01:21.905Z,16.93
2018-06-15T01:02:22.114Z,16.96
2018-06-15T01:03:21.928Z,16.94
2018-06-15T01:04:21.944Z,16.97
2018-06-15T01:05:21.961Z,16.97
2018-06-15T01:06:21.977Z,16.97
2018-06-15T01:07:21.993Z,16.93
2018-06-15T01:08:22.012Z,16.96
2018-06-15T01:09:22.026Z,17.00
2018-06-15T01:10:22.040Z,16.98
2018-06-15T01:11:22.056Z,16.97
2018-06-15T01:12:22.073Z,17.00
2018-06-15T01:13:22.095Z,17.00
2018-06-15T01:14:22.205Z,16.96
2018-06-15T01:15:22.122Z,16.97
2018-06-15T01:16:22.137Z,16.89
2018-06-15T01:17:22.156Z,16.94
2018-06-15T01:18:22.167Z,16.96
2018-06-15T01:19:22.185Z,16.93
2018-06-15T01:20:22.201Z,16.75
2018-06-15T01:21:22.219Z,16.78
2018-06-15T01:22:22.232Z,16.78
2018-06-15T01:23:22.251Z,16.83
2018-06-15T01:24:22.265Z,16.82
2018-06-15T01:25:22.282Z,16.79
2018-06-15T01:26:22.300Z,16.85
2018-06-15T01:27:22.340Z,16.76
2018-06-15T01:28:22.343Z,16.89
2018-06-15T01:29:22.345Z,16.86
2018-06-15T01:30:22.362Z,16.79
2018-06-15T01:31:22.378Z,16.83
2018-06-15T01:32:22.393Z,16.86
2018-06-15T01:33:22.416Z,16.78
2018-06-15T01:34:22.425Z,16.76
2018-06-15T01:35:22.441Z,16.73
2018-06-15T01:36:22.458Z,16.73
2018-06-15T01:37:22.475Z,16.64
2018-06-15T01:38:22.494Z,16.63
2018-06-15T01:39:22.507Z,16.67
2018-06-15T01:40:22.522Z,16.67
2018-06-15T01:41:22.538Z,16.67
2018-06-15T01:42:22.552Z,16.67
2018-06-15T01:43:22.567Z,16.68
2018-06-15T01:44:22.584Z,16.64
2018-06-15T01:45:22.600Z,16.66
2018-06-15T01:46:22.616Z,16.64
2018-06-15T01:47:22.636Z,16.68
2018-06-15T01:48:22.655Z,16.67
2018-06-15T01:49:22.665Z,16.63
2018-06-15T01:50:22.680Z,16.63
2018-06-15T01:51:22.698Z,16.67
2018-06-15T01:52:22.715Z,16.61
2018-06-15T01:53:22.728Z,16.61
2018-06-15T01:54:22.744Z,16.63
2018-06-15T01:55:22.760Z,16.58
2018-06-15T01:56:22.781Z,16.53
2018-06-15T01:57:22.793Z,16.49
2018-06-15T01:58:22.811Z,16.49
2018-06-15T01:59:22.870Z,16.42
2018-06-15T02:00:22.844Z,16.49
2018-06-15T02:01:22.918Z,16.34
2018-06-15T02:02:22.872Z,16.38
2018-06-15T02:03:22.892Z,16.45
2018-06-15T02:04:22.907Z,16.38
2018-06-15T02:05:22.923Z,16.30
2018-06-15T02:06:22.937Z,16.35
2018-06-15T02:07:22.953Z,16.35
2018-06-15T02:08:22.969Z,16.30
2018-06-15T02:09:22.985Z,16.28
2018-06-15T02:10:23.002Z,16.24
2018-06-15T02:11:23.019Z,16.24
2018-06-15T02:12:23.033Z,16.23
2018-06-15T02:13:23.058Z,16.21
2018-06-15T02:14:23.079Z,16.21
2018-06-15T02:15:23.118Z,16.04
2018-06-15T02:16:23.097Z,16.12
2018-06-15T02:17:23.115Z,16.11
2018-06-15T02:18:23.132Z,16.08
2018-06-15T02:19:23.143Z,16.07
2018-06-15T02:20:23.172Z,16.05
2018-06-15T02:21:23.185Z,16.11
2018-06-15T02:22:23.195Z,16.08
2018-06-15T02:23:23.208Z,16.07
2018-06-15T02:24:23.243Z,16.05
2018-06-15T02:25:23.241Z,16.09
2018-06-15T02:26:23.257Z,16.00
2018-06-15T02:27:23.283Z,16.05
2018-06-15T02:28:23.288Z,16.04
2018-06-15T02:29:23.305Z,16.01
2018-06-15T02:30:23.322Z,16.02
2018-06-15T02:31:23.338Z,16.04
2018-06-15T02:32:23.355Z,16.01
2018-06-15T02:33:23.372Z,16.04
2018-06-15T02:34:23.391Z,16.00
2018-06-15T02:35:23.410Z,15.96
2018-06-15T02:36:23.418Z,15.96
2018-06-15T02:37:23.436Z,15.97
2018-06-15T02:38:23.449Z,16.04
2018-06-15T02:39:23.486Z,16.02
2018-06-15T02:40:23.481Z,15.96
2018-06-15T02:41:23.508Z,15.94
2018-06-15T02:42:23.512Z,16.01
2018-06-15T02:43:23.538Z,15.96
2018-06-15T02:44:23.544Z,16.04
2018-06-15T02:45:23.598Z,16.01
2018-06-15T02:46:23.575Z,16.04
2018-06-15T02:47:23.597Z,15.96
2018-06-15T02:48:23.606Z,16.01
2018-06-15T02:49:23.623Z,15.97
2018-06-15T02:50:23.637Z,16.01
2018-06-15T02:51:23.654Z,15.93
2018-06-15T02:52:23.675Z,15.97
2018-06-15T02:53:23.686Z,15.97
2018-06-15T02:54:23.703Z,16.02
2018-06-15T02:55:23.719Z,15.92
2018-06-15T02:56:23.739Z,15.97
2018-06-15T02:57:23.762Z,15.93
2018-06-15T02:58:23.765Z,16.01
2018-06-15T02:59:23.784Z,15.96
2018-06-15T03:00:23.798Z,16.01
2018-06-15T03:01:23.817Z,16.04
2018-06-15T03:02:23.847Z,16.02
2018-06-15T03:03:23.845Z,16.11
2018-06-15T03:04:23.862Z,16.07
2018-06-15T03:05:23.880Z,16.09
2018-06-15T03:06:23.894Z,16.11
2018-06-15T03:07:23.911Z,16.07
2018-06-15T03:08:23.925Z,16.11
2018-06-15T03:09:23.945Z,16.04
2018-06-15T03:10:23.959Z,16.17
2018-06-15T03:11:23.975Z,16.20
2018-06-15T03:12:23.997Z,16.20
2018-06-15T03:13:24.006Z,16.21
2018-06-15T03:14:24.021Z,16.30
2018-06-15T03:15:24.038Z,16.31
2018-06-15T03:16:24.055Z,16.34
2018-06-15T03:17:24.083Z,16.38
2018-06-15T03:18:24.086Z,16.38
2018-06-15T03:19:24.102Z,16.42
2018-06-15T03:20:24.116Z,16.46
2018-06-15T03:21:24.135Z,16.43
2018-06-15T03:22:24.148Z,16.46
2018-06-15T03:23:24.165Z,16.48
2018-06-15T03:24:24.183Z,16.45
2018-06-15T03:25:24.197Z,16.50
2018-06-15T03:26:24.240Z,16.56
2018-06-15T03:27:24.228Z,16.53
2018-06-15T03:28:24.300Z,16.66
2018-06-15T03:29:24.287Z,16.52
2018-06-15T03:30:24.279Z,16.57
2018-06-15T03:31:24.392Z,16.50
2018-06-15T03:32:24.312Z,16.56
2018-06-15T03:33:24.325Z,16.57
2018-06-15T03:34:24.341Z,16.56
2018-06-15T03:35:24.356Z,16.57
2018-06-15T03:36:24.372Z,16.53
2018-06-15T03:37:24.389Z,16.52
2018-06-15T03:38:24.410Z,16.57
2018-06-15T03:39:24.732Z,16.61
2018-06-15T03:40:24.448Z,16.46
2018-06-15T03:41:24.454Z,16.48
2018-06-15T03:42:24.481Z,16.56
2018-06-15T03:43:24.484Z,16.58
2018-06-15T03:44:24.503Z,16.58
2018-06-15T03:45:24.524Z,16.60
2018-06-15T03:46:24.534Z,16.67
2018-06-15T03:47:24.550Z,16.63
2018-06-15T03:48:24.571Z,16.61
2018-06-15T03:49:24.585Z,16.61
2018-06-15T03:50:24.600Z,16.64
2018-06-15T03:51:24.616Z,16.61
2018-06-15T03:52:24.630Z,16.71
2018-06-15T03:53:24.650Z,16.73
2018-06-15T03:54:24.664Z,16.75
2018-06-15T03:55:24.682Z,16.73
2018-06-15T03:56:24.701Z,16.71
2018-06-15T03:57:24.712Z,16.68
2018-06-15T03:58:24.727Z,16.75
2018-06-15T03:59:24.745Z,16.76
2018-06-15T04:00:24.758Z,16.76
2018-06-15T04:01:24.781Z,16.75
2018-06-15T04:02:24.791Z,16.75
2018-06-15T04:03:24.818Z,16.76
2018-06-15T04:04:24.824Z,16.82
2018-06-15T04:05:24.840Z,16.76
2018-06-15T04:06:24.853Z,16.83
2018-06-15T04:07:24.872Z,16.91
2018-06-15T04:08:24.891Z,16.91
2018-06-15T04:09:24.909Z,16.79
2018-06-15T04:10:24.927Z,16.76
2018-06-15T04:11:24.936Z,16.86
2018-06-15T04:12:24.955Z,16.79
2018-06-15T04:13:25.042Z,16.96
2018-06-15T04:14:24.985Z,16.82
2018-06-15T04:15:25.005Z,16.76
2018-06-15T04:16:25.017Z,16.82
2018-06-15T04:17:25.036Z,16.86
2018-06-15T04:18:25.050Z,16.82
2018-06-15T04:19:25.070Z,16.79
2018-06-15T04:20:25.080Z,16.76
2018-06-15T04:21:25.097Z,16.89
2018-06-15T04:22:25.113Z,16.85
2018-06-15T04:23:25.132Z,16.88
2018-06-15T04:24:25.145Z,16.81
2018-06-15T04:25:25.169Z,16.82
2018-06-15T04:26:25.177Z,16.82
2018-06-15T04:27:25.194Z,16.83
2018-06-15T04:28:25.212Z,16.79
2018-06-15T04:29:25.224Z,16.83
2018-06-15T04:30:25.246Z,16.85
2018-06-15T04:31:25.258Z,16.82
2018-06-15T04:32:25.274Z,16.78
2018-06-15T04:33:25.290Z,16.88
2018-06-15T04:34:25.305Z,16.79
2018-06-15T04:35:25.325Z,16.78
2018-06-15T04:36:25.338Z,16.82
2018-06-15T04:37:25.391Z,16.98
2018-06-15T04:38:25.381Z,16.79
2018-06-15T04:39:25.385Z,16.82
2018-06-15T04:40:25.401Z,16.78
2018-06-15T04:41:25.419Z,16.88
2018-06-15T04:42:25.433Z,16.82
2018-06-15T04:43:25.452Z,16.82
2018-06-15T04:44:25.502Z,16.88
2018-06-15T04:45:25.486Z,16.82
2018-06-15T04:46:25.500Z,16.93
2018-06-15T04:47:25.519Z,16.82
2018-06-15T04:48:25.534Z,16.78
2018-06-15T04:49:25.549Z,16.89
2018-06-15T04:50:25.864Z,16.96
2018-06-15T04:51:25.618Z,16.93
2018-06-15T04:52:25.705Z,16.91
2018-06-15T04:53:25.613Z,17.04
2018-06-15T04:54:26.693Z,17.03
2018-06-15T04:55:25.645Z,17.11
2018-06-15T04:56:25.663Z,17.08
2018-06-15T04:57:25.679Z,17.04
2018-06-15T04:58:25.693Z,16.98
2018-06-15T04:59:25.713Z,17.00
2018-06-15T05:00:25.732Z,17.08
2018-06-15T05:01:25.745Z,17.11
2018-06-15T05:02:25.767Z,17.06
2018-06-15T05:03:25.787Z,17.21
2018-06-15T05:04:26.748Z,17.18
2018-06-15T05:05:25.813Z,17.19
2018-06-15T05:06:25.831Z,17.22
2018-06-15T05:07:25.847Z,17.22
2018-06-15T05:08:25.868Z,17.23
2018-06-15T05:09:25.879Z,17.15
2018-06-15T05:10:25.895Z,17.26
2018-06-15T05:11:26.009Z,17.33
2018-06-15T05:12:25.942Z,17.37
2018-06-15T05:13:25.945Z,17.25
2018-06-15T05:14:25.970Z,17.31
2018-06-15T05:15:25.973Z,17.36
2018-06-15T05:16:25.995Z,17.28
2018-06-15T05:17:26.017Z,17.38
2018-06-15T05:18:26.040Z,17.36
2018-06-15T05:19:26.040Z,17.37
2018-06-15T05:20:26.056Z,17.34
2018-06-15T05:21:26.088Z,17.38
2018-06-15T05:22:26.306Z,17.38
2018-06-15T05:23:26.107Z,17.38
2018-06-15T05:24:26.121Z,17.36
2018-06-15T05:25:26.138Z,17.36
2018-06-15T05:26:26.153Z,17.44
2018-06-15T05:27:26.172Z,17.51
2018-06-15T05:28:26.186Z,17.49
2018-06-15T05:29:26.206Z,17.46
2018-06-15T05:30:26.225Z,17.38
2018-06-15T05:31:26.249Z,17.49
2018-06-15T05:32:26.258Z,17.44
2018-06-15T05:33:26.271Z,17.44
2018-06-15T05:34:26.287Z,17.40
2018-06-15T05:35:26.306Z,17.48
2018-06-15T05:36:26.319Z,17.48
2018-06-15T05:37:26.337Z,17.48
2018-06-15T05:38:26.350Z,17.46
2018-06-15T05:39:26.368Z,17.43
2018-06-15T05:40:26.387Z,17.41
2018-06-15T05:41:26.402Z,17.49
2018-06-15T05:42:26.417Z,17.40
2018-06-15T05:43:26.433Z,17.52
2018-06-15T05:44:26.449Z,17.55
2018-06-15T05:45:26.470Z,17.59
2018-06-15T05:46:26.483Z,17.52
2018-06-15T05:47:26.501Z,17.59
2018-06-15T05:48:26.524Z,17.59
2018-06-15T05:49:26.538Z,17.62
2018-06-15T05:50:26.580Z,17.62
2018-06-15T05:51:26.569Z,17.71
2018-06-15T05:52:26.582Z,17.68
2018-06-15T05:53:26.599Z,17.63
2018-06-15T05:54:26.615Z,17.66
2018-06-15T05:55:26.633Z,17.66
2018-06-15T05:56:26.657Z,17.63
2018-06-15T05:57:26.667Z,17.64
2018-06-15T05:58:26.691Z,17.63
2018-06-15T05:59:26.698Z,17.56
2018-06-15T06:00:26.717Z,17.70
2018-06-15T06:01:26.732Z,17.62
2018-06-15T06:02:26.748Z,17.66
2018-06-15T06:03:26.763Z,17.68
2018-06-15T06:04:26.781Z,17.72
2018-06-15T06:05:26.797Z,17.71
2018-06-15T06:06:26.815Z,17.71
2018-06-15T06:07:26.831Z,17.70
2018-06-15T06:08:26.851Z,17.78
2018-06-15T06:09:26.871Z,17.68
2018-06-15T06:10:26.911Z,17.70
2018-06-15T06:11:26.898Z,17.64
2018-06-15T06:12:26.929Z,17.63
2018-06-15T06:13:26.934Z,17.52
2018-06-15T06:14:26.946Z,17.48
2018-06-15T06:15:26.962Z,17.48
2018-06-15T06:16:26.985Z,17.58
2018-06-15T06:17:26.996Z,17.49
2018-06-15T06:18:27.008Z,17.63
2018-06-15T06:19:27.024Z,17.70
2018-06-15T06:20:27.042Z,17.82
2018-06-15T06:21:27.070Z,17.84
2018-06-15T06:22:27.075Z,17.92
2018-06-15T06:23:27.098Z,17.95
2018-06-15T06:24:27.106Z,17.96
2018-06-15T06:25:27.121Z,17.93
2018-06-15T06:26:27.157Z,18.02
2018-06-15T06:27:27.157Z,18.03
2018-06-15T06:28:27.173Z,18.20
2018-06-15T06:29:27.189Z,18.18
2018-06-15T06:30:27.207Z,18.21
2018-06-15T06:31:27.222Z,18.20
2018-06-15T06:32:27.252Z,18.26
2018-06-15T06:33:27.258Z,18.25
2018-06-15T06:34:27.273Z,18.21
2018-06-15T06:35:27.290Z,18.29
2018-06-15T06:36:27.306Z,18.33
2018-06-15T06:37:27.328Z,18.52
2018-06-15T06:38:27.340Z,18.60
2018-06-15T06:39:27.356Z,18.65
2018-06-15T06:40:27.375Z,18.70
2018-06-15T06:41:27.392Z,18.72
2018-06-15T06:42:27.412Z,18.73
2018-06-15T06:43:27.430Z,18.84
2018-06-15T06:44:27.443Z,18.90
2018-06-15T06:45:27.462Z,18.94
2018-06-15T06:46:27.482Z,18.99
2018-06-15T06:47:27.494Z,18.95
2018-06-15T06:49:27.530Z,18.92
2018-06-15T06:50:27.550Z,18.90
2018-06-15T06:51:27.564Z,19.13
2018-06-15T06:52:27.583Z,19.16
2018-06-15T06:53:27.599Z,19.21
2018-06-15T06:54:27.617Z,19.23
2018-06-15T06:55:27.642Z,19.19
2018-06-15T06:56:27.669Z,19.28
2018-06-15T06:57:27.941Z,19.29
2018-06-15T06:58:27.749Z,19.36
2018-06-15T06:59:27.705Z,19.40
2018-06-15T07:00:27.722Z,19.51
2018-06-15T07:01:27.744Z,19.47
2018-06-15T07:02:27.759Z,19.54
2018-06-15T07:03:27.803Z,19.44
2018-06-15T07:04:27.791Z,19.50
2018-06-15T07:05:27.810Z,19.50
2018-06-15T07:06:27.830Z,19.63
2018-06-15T07:07:27.867Z,19.54
2018-06-15T07:08:27.873Z,19.62
2018-06-15T07:09:27.883Z,19.59
2018-06-15T07:10:27.911Z,19.59
2018-06-15T07:11:27.927Z,19.54
2018-06-15T07:12:28.473Z,19.65
2018-06-15T07:13:27.952Z,19.65
2018-06-15T07:14:27.969Z,19.74
2018-06-15T07:15:27.986Z,19.63
2018-06-15T07:16:28.016Z,19.43
2018-06-15T07:17:28.022Z,19.31
2018-06-15T07:18:28.046Z,19.36
2018-06-15T07:19:28.058Z,19.32
2018-06-15T07:20:28.079Z,19.31
2018-06-15T07:21:28.098Z,19.36
2018-06-15T07:22:28.141Z,19.32
2018-06-15T07:23:28.519Z,19.26
2018-06-15T07:24:28.624Z,19.23
2018-06-15T07:25:28.163Z,19.14
2018-06-15T07:26:28.186Z,19.14
2018-06-15T07:27:28.270Z,19.08
2018-06-15T07:28:28.228Z,19.06
2018-06-15T07:29:28.236Z,19.19
2018-06-15T07:30:28.362Z,19.10
2018-06-15T07:31:28.419Z,19.19
2018-06-15T07:32:28.292Z,19.04
2018-06-15T07:33:28.314Z,19.10
2018-06-15T07:34:28.323Z,19.06
2018-06-15T07:35:28.358Z,18.95
2018-06-15T07:36:28.584Z,19.00
2018-06-15T07:37:28.382Z,19.02
2018-06-15T07:38:28.406Z,19.00
2018-06-15T07:39:28.411Z,19.02
2018-06-15T07:40:28.422Z,19.02
2018-06-15T07:41:28.449Z,19.02
2018-06-15T07:42:28.459Z,18.99
2018-06-15T07:43:28.481Z,19.08
2018-06-15T07:44:28.497Z,19.08
2018-06-15T07:45:28.508Z,19.04
2018-06-15T07:46:28.556Z,19.11
2018-06-15T07:47:28.546Z,19.06
2018-06-15T07:48:28.564Z,19.16
2018-06-15T07:49:28.582Z,19.13
2018-06-15T07:50:28.595Z,19.08
2018-06-15T07:51:28.613Z,19.06
2018-06-15T07:52:28.639Z,18.98
2018-06-15T07:53:28.661Z,19.07
2018-06-15T07:54:28.663Z,19.13
2018-06-15T07:55:28.684Z,19.08
2018-06-15T07:56:28.727Z,18.95
2018-06-15T07:57:28.738Z,18.88
2018-06-15T07:58:28.733Z,18.84
2018-06-15T07:59:28.774Z,18.99
2018-06-15T08:00:28.766Z,19.16
2018-06-15T08:01:28.783Z,19.08
2018-06-15T08:02:28.981Z,19.16
2018-06-15T08:03:28.822Z,19.29
2018-06-15T08:04:29.061Z,19.41
2018-06-15T08:05:29.011Z,19.43
2018-06-15T08:06:28.871Z,19.43
2018-06-15T08:07:28.888Z,19.43
2018-06-15T08:08:28.906Z,19.48
2018-06-15T08:10:28.938Z,19.63
2018-06-15T08:11:28.957Z,19.71
2018-06-15T08:12:29.000Z,19.77
2018-06-15T08:13:28.992Z,19.80
2018-06-15T08:14:29.034Z,19.68
2018-06-15T08:15:29.034Z,19.83
2018-06-15T08:16:29.044Z,19.98
2018-06-15T08:17:29.059Z,20.06
2018-06-15T08:18:29.081Z,20.13
2018-06-15T08:19:29.108Z,20.17
2018-06-15T08:20:29.115Z,20.23
2018-06-15T08:21:29.132Z,20.31
2018-06-15T08:22:29.148Z,20.47
2018-06-15T08:23:29.168Z,20.54
2018-06-15T08:24:29.190Z,20.69
2018-06-15T08:25:29.205Z,20.69
2018-06-15T08:26:29.223Z,20.77
2018-06-15T08:27:29.238Z,20.99
2018-06-15T08:28:29.260Z,21.04
2018-06-15T08:29:29.290Z,21.14
2018-06-15T08:30:29.304Z,21.12
2018-06-15T08:31:29.311Z,21.01
2018-06-15T08:32:29.346Z,20.92
2018-06-15T08:33:29.351Z,20.85
2018-06-15T08:34:29.366Z,20.88
2018-06-15T08:35:29.390Z,20.95
2018-06-15T08:36:29.408Z,20.69
2018-06-15T08:37:29.422Z,20.59
2018-06-15T08:38:29.454Z,20.66
2018-06-15T08:39:29.464Z,20.73
2018-06-15T08:40:29.505Z,20.73
2018-06-15T08:41:29.518Z,20.74
2018-06-15T08:42:29.516Z,20.88
2018-06-15T08:43:29.531Z,21.04
2018-06-15T08:44:29.556Z,21.04
2018-06-15T08:45:29.574Z,21.21
2018-06-15T08:46:29.591Z,21.28
2018-06-15T08:47:29.612Z,21.37
2018-06-15T08:48:29.659Z,21.27
2018-06-15T08:49:29.650Z,21.17
2018-06-15T08:50:29.670Z,21.17
2018-06-15T08:51:29.686Z,21.16
2018-06-15T08:52:29.721Z,21.09
2018-06-15T08:53:29.722Z,20.94
2018-06-15T08:54:29.746Z,20.98
2018-06-15T08:55:29.773Z,20.97
2018-06-15T08:56:29.781Z,20.98
2018-06-15T08:57:29.796Z,20.94
2018-06-15T08:58:29.820Z,20.73
2018-06-15T08:59:29.842Z,20.59
2018-06-15T09:00:29.854Z,20.54
2018-06-15T09:01:29.871Z,20.36
2018-06-15T09:02:29.900Z,20.42
2018-06-15T09:03:29.912Z,20.54
2018-06-15T09:04:29.961Z,20.64
2018-06-15T09:05:29.958Z,20.79
2018-06-15T09:06:29.967Z,20.85
2018-06-15T09:07:29.988Z,20.85
2018-06-15T09:08:30.009Z,20.80
2018-06-15T09:09:30.022Z,20.80
2018-06-15T09:10:30.136Z,20.91
2018-06-15T09:11:30.096Z,21.06
2018-06-15T09:12:30.079Z,21.07
2018-06-15T09:13:30.099Z,21.06
2018-06-15T09:14:30.116Z,21.03
2018-06-15T09:16:30.158Z,21.06
2018-06-15T09:17:30.168Z,21.17
2018-06-15T09:18:30.234Z,21.22
2018-06-15T09:19:30.519Z,21.27
2018-06-15T09:20:30.230Z,21.47
2018-06-15T09:21:30.293Z,21.58
2018-06-15T09:22:30.279Z,21.67
2018-06-15T09:23:30.290Z,21.67
2018-06-15T09:24:30.319Z,21.77
2018-06-15T09:25:30.324Z,21.69
2018-06-15T09:26:30.337Z,21.47
2018-06-15T09:27:30.848Z,21.52
2018-06-15T09:28:30.389Z,21.53
2018-06-15T09:29:30.398Z,21.44
2018-06-15T09:30:30.442Z,21.32
2018-06-15T09:31:30.435Z,21.28
2018-06-15T09:32:30.450Z,21.16
2018-06-15T09:33:30.510Z,21.27
2018-06-15T09:34:30.496Z,21.47
2018-06-15T09:35:30.529Z,21.56
2018-06-15T09:36:30.529Z,21.67
2018-06-15T09:37:30.548Z,21.65
2018-06-15T09:38:30.568Z,21.65
2018-06-15T09:39:30.585Z,21.56
2018-06-15T09:40:30.701Z,21.47
2018-06-15T09:41:31.687Z,21.43
2018-06-15T09:42:30.642Z,21.38
2018-06-15T09:43:30.669Z,21.53
2018-06-15T09:44:31.262Z,21.61
2018-06-15T09:47:30.766Z,21.79
2018-06-15T09:48:30.777Z,21.90
2018-06-15T09:49:30.802Z,21.94
2018-06-15T09:50:30.798Z,21.72
2018-06-15T09:51:30.821Z,21.71
2018-06-15T09:52:30.838Z,21.79
2018-06-15T09:53:30.856Z,21.82
2018-06-15T09:54:30.943Z,21.94
2018-06-15T09:55:30.915Z,21.90
2018-06-15T09:56:30.919Z,21.90
2018-06-15T09:58:30.942Z,21.67
2018-06-15T09:59:30.979Z,21.54
2018-06-15T10:00:30.983Z,21.42
2018-06-15T10:01:31.000Z,21.38
2018-06-15T10:02:31.021Z,21.46
2018-06-15T10:03:31.038Z,21.47
2018-06-15T10:04:31.058Z,21.31
2018-06-15T10:05:31.082Z,21.35
2018-06-15T10:06:31.122Z,21.37
2018-06-15T10:07:31.134Z,21.50
2018-06-15T10:08:31.139Z,21.67
2018-06-15T10:09:31.177Z,21.72
2018-06-15T10:10:31.198Z,21.62
2018-06-15T10:11:31.190Z,21.65
2018-06-15T10:12:31.243Z,21.43
2018-06-15T10:13:31.387Z,21.42
2018-06-15T10:14:31.269Z,21.37
2018-06-15T10:15:31.266Z,21.43
2018-06-15T10:16:31.288Z,21.25
2018-06-15T10:17:31.319Z,21.29
2018-06-15T10:18:31.330Z,21.35
2018-06-15T10:19:31.353Z,21.40
2018-06-15T10:20:31.375Z,21.53
2018-06-15T10:21:32.363Z,21.65
2018-06-15T10:22:31.395Z,21.61
2018-06-15T10:23:31.418Z,21.68
2018-06-15T10:24:31.437Z,21.68
2018-06-15T10:25:31.455Z,21.64
2018-06-15T10:26:31.471Z,21.74
2018-06-15T10:27:31.493Z,21.71
2018-06-15T10:28:31.513Z,21.72
2018-06-15T10:29:31.533Z,21.82
2018-06-15T10:30:31.550Z,21.84
2018-06-15T10:31:31.564Z,21.94
2018-06-15T10:32:31.597Z,22.12
2018-06-15T10:33:31.634Z,22.12
2018-06-15T10:34:31.624Z,22.22
2018-06-15T10:35:31.647Z,22.40
2018-06-15T10:36:31.713Z,22.39
2018-06-15T10:37:31.682Z,22.43
2018-06-15T10:38:31.698Z,22.39
2018-06-15T10:39:31.771Z,22.51
2018-06-15T10:40:32.229Z,22.49
2018-06-15T10:41:32.484Z,22.54
2018-06-15T10:42:31.778Z,22.52
2018-06-15T10:43:31.791Z,22.76
2018-06-15T10:44:31.829Z,22.77
2018-06-15T10:45:31.859Z,22.79
2018-06-15T10:46:31.848Z,22.79
2018-06-15T10:47:31.889Z,22.70
2018-06-15T10:48:31.966Z,22.64
2018-06-15T10:49:31.916Z,22.75
2018-06-15T10:50:31.922Z,22.76
2018-06-15T10:51:31.944Z,22.80
2018-06-15T10:52:32.008Z,22.92
2018-06-15T10:53:31.976Z,23.07
2018-06-15T10:54:32.001Z,22.91
2018-06-15T10:55:32.019Z,22.79
2018-06-15T10:56:32.149Z,22.82
2018-06-15T10:57:32.055Z,23.00
2018-06-15T10:58:32.072Z,23.01
2018-06-15T10:59:32.096Z,23.13
2018-06-15T11:00:32.118Z,23.19
2018-06-15T11:01:32.131Z,23.25
2018-06-15T11:02:32.155Z,23.35
2018-06-15T11:03:32.174Z,23.31
2018-06-15T11:04:32.197Z,23.20
2018-06-15T11:05:32.210Z,23.32
2018-06-15T11:06:32.226Z,23.35
2018-06-15T11:07:32.386Z,23.38
2018-06-15T11:08:32.894Z,23.57
2018-06-15T11:09:32.305Z,23.57
2018-06-15T11:10:32.308Z,23.55
2018-06-15T11:11:32.336Z,23.48
2018-06-15T11:12:32.349Z,23.58
2018-06-15T11:13:32.371Z,23.58
2018-06-15T11:14:32.385Z,23.63
2018-06-15T11:15:32.406Z,23.66
2018-06-15T11:16:32.426Z,23.66
2018-06-15T11:17:32.952Z,23.68
2018-06-15T11:18:32.488Z,23.63
2018-06-15T11:19:32.510Z,23.61
2018-06-15T11:20:32.503Z,23.60
2018-06-15T11:21:32.572Z,23.55
2018-06-15T11:22:32.540Z,23.39
2018-06-15T11:23:32.561Z,23.39
2018-06-15T11:25:33.070Z,23.53
2018-06-15T11:26:32.617Z,23.80
2018-06-15T11:27:32.647Z,23.95
2018-06-15T11:28:32.662Z,24.37
2018-06-15T11:29:32.680Z,24.34
2018-06-15T11:30:32.764Z,24.34
2018-06-15T11:31:32.721Z,24.31
2018-06-15T11:32:32.742Z,24.27
2018-06-15T11:33:32.858Z,24.00
2018-06-15T11:34:32.780Z,23.95
2018-06-15T11:35:32.799Z,23.97
2018-06-15T11:36:32.835Z,24.09
2018-06-15T11:37:32.843Z,24.13
2018-06-15T11:38:32.868Z,24.28
2018-06-15T11:39:32.877Z,24.45
2018-06-15T11:40:32.902Z,24.50
2018-06-15T11:41:32.919Z,24.42
2018-06-15T11:42:32.942Z,24.64
2018-06-15T11:43:33.062Z,24.69
2018-06-15T11:44:32.982Z,24.68
2018-06-15T11:45:33.002Z,24.65
2018-06-15T11:46:33.034Z,24.78
2018-06-15T11:47:33.043Z,24.55
2018-06-15T11:48:33.064Z,24.42
2018-06-15T11:49:33.082Z,24.42
2018-06-15T11:50:33.627Z,24.60
2018-06-15T11:51:33.128Z,24.40
2018-06-15T11:52:33.142Z,24.37
2018-06-15T11:53:33.173Z,24.43
2018-06-15T11:54:33.291Z,24.25
2018-06-15T11:55:33.212Z,23.97
2018-06-15T11:56:33.229Z,24.12
2018-06-15T11:57:33.321Z,24.39
2018-06-15T11:58:33.269Z,24.52
2018-06-15T11:59:33.358Z,24.81
2018-06-15T12:00:33.306Z,25.08
2018-06-15T12:01:33.328Z,25.18
2018-06-15T12:02:33.348Z,25.17
2018-06-15T12:03:33.421Z,25.35
2018-06-15T12:04:33.391Z,25.50
2018-06-15T12:05:33.412Z,25.51
2018-06-15T12:06:33.509Z,25.67
2018-06-15T12:07:33.474Z,25.69
2018-06-15T12:08:33.483Z,25.82
2018-06-15T12:09:33.541Z,25.97
2018-06-15T12:10:33.527Z,26.18
2018-06-15T12:11:33.562Z,26.10
2018-06-15T12:12:33.556Z,25.94
2018-06-15T12:13:33.589Z,25.90
2018-06-15T12:14:33.596Z,25.91
2018-06-15T12:15:33.621Z,26.05
2018-06-15T12:16:33.639Z,25.82
2018-06-15T12:17:33.660Z,25.58
2018-06-15T12:18:33.683Z,25.17
2018-06-15T12:19:33.705Z,24.81
2018-06-15T12:20:33.750Z,24.71
2018-06-15T12:21:33.747Z,24.77
2018-06-15T12:22:33.787Z,24.83
2018-06-15T12:23:33.970Z,24.93
2018-06-15T12:24:34.369Z,25.14
2018-06-15T12:25:33.865Z,25.28
2018-06-15T12:26:33.854Z,25.54
2018-06-15T12:27:33.871Z,25.73
2018-06-15T12:28:34.050Z,25.94
2018-06-15T12:29:33.914Z,26.23
2018-06-15T12:30:34.007Z,26.23
2018-06-15T12:31:34.797Z,26.36
2018-06-15T12:32:35.124Z,26.10
2018-06-15T12:33:35.286Z,25.95
2018-06-15T12:34:34.021Z,25.51
2018-06-15T12:35:34.042Z,25.15
2018-06-15T12:36:34.064Z,24.95
2018-06-15T12:37:34.089Z,24.91
2018-06-15T12:38:34.105Z,24.99
2018-06-15T12:39:34.129Z,25.08
2018-06-15T12:40:34.260Z,25.20
2018-06-15T12:41:34.171Z,25.36
2018-06-15T12:42:34.194Z,25.39
2018-06-15T12:43:34.215Z,25.62
2018-06-15T12:44:34.235Z,25.57
2018-06-15T12:45:34.257Z,25.94
2018-06-15T12:46:34.291Z,26.18
2018-06-15T12:47:34.307Z,26.36
2018-06-15T12:48:34.330Z,26.70
2018-06-15T12:49:34.346Z,26.84
2018-06-15T12:50:34.368Z,26.94
2018-06-15T12:51:34.391Z,26.75
2018-06-15T12:52:34.422Z,26.47
2018-06-15T12:53:34.439Z,26.28
2018-06-15T12:54:34.464Z,26.13
2018-06-15T12:55:34.490Z,25.98
2018-06-15T12:56:34.514Z,25.88
2018-06-15T12:57:34.540Z,25.94
2018-06-15T12:58:34.561Z,26.09
2018-06-15T12:59:34.577Z,26.05